sensor_id;sensor_type;location;lat;lon;timestamp;P1;durP1;ratioP1;P2;durP2;ratioP2
63087;SDS011;49173;43.164;27.786;2023-04-03T00:01:15;5.40;;;3.00;;
63087;SDS011;49173;43.164;27.786;2023-04-03T00:03:42;4.10;;;3.10;;
63087;SDS011;49173;43.164;27.786;2023-04-03T00:06:11;3.30;;;2.55;;
63087;SDS011;49173;43.164;27.786;2023-04-03T00:08:39;3.80;;;2.50;;
63087;SDS011;49173;43.164;27.786;2023-04-03T00:11:06;4.85;;;2.30;;
63087;SDS011;49173;43.164;27.786;2023-04-03T00:13:34;3.38;;;2.25;;
63087;SDS011;49173;43.164;27.786;2023-04-03T00:16:02;3.03;;;1.98;;
63087;SDS011;49173;43.164;27.786;2023-04-03T00:18:30;3.92;;;2.47;;
63087;SDS011;49173;43.164;27.786;2023-04-03T00:20:58;3.38;;;2.35;;
63087;SDS011;49173;43.164;27.786;2023-04-03T00:23:29;4.25;;;2.28;;
63087;SDS011;49173;43.164;27.786;2023-04-03T00:25:56;3.92;;;2.20;;
63087;SDS011;49173;43.164;27.786;2023-04-03T00:28:23;4.25;;;2.17;;
63087;SDS011;49173;43.164;27.786;2023-04-03T00:30:49;4.28;;;2.75;;
63087;SDS011;49173;43.164;27.786;2023-04-03T00:33:17;4.15;;;3.08;;
63087;SDS011;49173;43.164;27.786;2023-04-03T00:38:13;5.10;;;3.80;;
63087;SDS011;49173;43.164;27.786;2023-04-03T00:40:45;6.68;;;4.00;;
63087;SDS011;49173;43.164;27.786;2023-04-03T00:43:19;8.15;;;3.47;;
63087;SDS011;49173;43.164;27.786;2023-04-03T00:45:50;5.90;;;3.63;;
63087;SDS011;49173;43.164;27.786;2023-04-03T00:48:23;6.53;;;3.63;;
63087;SDS011;49173;43.164;27.786;2023-04-03T00:50:59;6.00;;;4.43;;
63087;SDS011;49173;43.164;27.786;2023-04-03T00:53:33;7.53;;;3.60;;
63087;SDS011;49173;43.164;27.786;2023-04-03T00:56:04;9.05;;;5.00;;
63087;SDS011;49173;43.164;27.786;2023-04-03T00:58:46;19.50;;;12.02;;
63087;SDS011;49173;43.164;27.786;2023-04-03T01:01:18;9.00;;;6.82;;
63087;SDS011;49173;43.164;27.786;2023-04-03T01:03:49;6.47;;;4.78;;
63087;SDS011;49173;43.164;27.786;2023-04-03T01:06:19;3.80;;;2.88;;
63087;SDS011;49173;43.164;27.786;2023-04-03T01:08:51;5.72;;;3.60;;
63087;SDS011;49173;43.164;27.786;2023-04-03T01:11:21;3.70;;;2.72;;
63087;SDS011;49173;43.164;27.786;2023-04-03T01:13:49;5.35;;;3.10;;
63087;SDS011;49173;43.164;27.786;2023-04-03T01:16:15;4.45;;;3.50;;
63087;SDS011;49173;43.164;27.786;2023-04-03T01:18:44;7.38;;;4.75;;
63087;SDS011;49173;43.164;27.786;2023-04-03T01:21:36;11.25;;;5.93;;
63087;SDS011;49173;43.164;27.786;2023-04-03T01:24:20;8.93;;;6.00;;
63087;SDS011;49173;43.164;27.786;2023-04-03T01:26:58;8.75;;;5.93;;
63087;SDS011;49173;43.164;27.786;2023-04-03T01:29:27;11.48;;;7.93;;
63087;SDS011;49173;43.164;27.786;2023-04-03T01:32:00;11.85;;;7.35;;
63087;SDS011;49173;43.164;27.786;2023-04-03T01:36:59;9.93;;;6.63;;
63087;SDS011;49173;43.164;27.786;2023-04-03T01:39:26;8.95;;;6.07;;
63087;SDS011;49173;43.164;27.786;2023-04-03T01:41:53;9.55;;;5.38;;
63087;SDS011;49173;43.164;27.786;2023-04-03T01:44:20;6.97;;;4.60;;
63087;SDS011;49173;43.164;27.786;2023-04-03T01:46:47;6.78;;;4.53;;
63087;SDS011;49173;43.164;27.786;2023-04-03T01:49:13;6.43;;;4.43;;
63087;SDS011;49173;43.164;27.786;2023-04-03T01:51:40;7.13;;;4.25;;
63087;SDS011;49173;43.164;27.786;2023-04-03T01:54:10;6.43;;;4.20;;
63087;SDS011;49173;43.164;27.786;2023-04-03T01:59:06;5.57;;;4.00;;
63087;SDS011;49173;43.164;27.786;2023-04-03T02:01:32;5.07;;;3.47;;
63087;SDS011;49173;43.164;27.786;2023-04-03T02:03:59;4.85;;;3.55;;
63087;SDS011;49173;43.164;27.786;2023-04-03T02:06:25;5.57;;;3.50;;
63087;SDS011;49173;43.164;27.786;2023-04-03T02:08:52;4.65;;;2.97;;
63087;SDS011;49173;43.164;27.786;2023-04-03T02:11:18;5.60;;;3.00;;
63087;SDS011;49173;43.164;27.786;2023-04-03T02:13:46;6.43;;;3.50;;
63087;SDS011;49173;43.164;27.786;2023-04-03T02:16:13;4.05;;;3.08;;
63087;SDS011;49173;43.164;27.786;2023-04-03T02:18:39;6.13;;;3.03;;
63087;SDS011;49173;43.164;27.786;2023-04-03T02:21:06;4.45;;;3.00;;
63087;SDS011;49173;43.164;27.786;2023-04-03T02:23:32;3.42;;;2.50;;
63087;SDS011;49173;43.164;27.786;2023-04-03T02:26:03;3.63;;;2.50;;
63087;SDS011;49173;43.164;27.786;2023-04-03T02:28:31;3.35;;;2.25;;
63087;SDS011;49173;43.164;27.786;2023-04-03T02:30:58;3.53;;;2.40;;
63087;SDS011;49173;43.164;27.786;2023-04-03T02:33:25;3.30;;;2.50;;
63087;SDS011;49173;43.164;27.786;2023-04-03T02:35:56;4.00;;;2.03;;
63087;SDS011;49173;43.164;27.786;2023-04-03T02:38:24;4.32;;;2.28;;
63087;SDS011;49173;43.164;27.786;2023-04-03T02:40:51;3.85;;;2.42;;
63087;SDS011;49173;43.164;27.786;2023-04-03T02:43:21;2.87;;;2.10;;
63087;SDS011;49173;43.164;27.786;2023-04-03T02:45:47;4.13;;;2.05;;
63087;SDS011;49173;43.164;27.786;2023-04-03T02:48:14;2.95;;;2.22;;
63087;SDS011;49173;43.164;27.786;2023-04-03T02:50:42;2.90;;;2.03;;
63087;SDS011;49173;43.164;27.786;2023-04-03T02:53:08;8.15;;;3.90;;
63087;SDS011;49173;43.164;27.786;2023-04-03T02:55:35;12.32;;;5.53;;
63087;SDS011;49173;43.164;27.786;2023-04-03T02:58:01;6.60;;;4.35;;
63087;SDS011;49173;43.164;27.786;2023-04-03T03:00:29;5.28;;;3.63;;
63087;SDS011;49173;43.164;27.786;2023-04-03T03:02:57;5.03;;;3.50;;
63087;SDS011;49173;43.164;27.786;2023-04-03T03:05:26;11.35;;;9.90;;
63087;SDS011;49173;43.164;27.786;2023-04-03T03:07:53;8.23;;;6.20;;
63087;SDS011;49173;43.164;27.786;2023-04-03T03:10:20;8.00;;;6.10;;
63087;SDS011;49173;43.164;27.786;2023-04-03T03:12:48;6.53;;;5.22;;
63087;SDS011;49173;43.164;27.786;2023-04-03T03:15:15;8.40;;;6.65;;
63087;SDS011;49173;43.164;27.786;2023-04-03T03:17:46;8.38;;;6.43;;
63087;SDS011;49173;43.164;27.786;2023-04-03T03:20:12;7.15;;;5.40;;
63087;SDS011;49173;43.164;27.786;2023-04-03T03:22:42;10.95;;;8.13;;
63087;SDS011;49173;43.164;27.786;2023-04-03T03:25:08;9.45;;;7.05;;
63087;SDS011;49173;43.164;27.786;2023-04-03T03:27:36;8.43;;;6.40;;
63087;SDS011;49173;43.164;27.786;2023-04-03T03:30:03;9.57;;;7.28;;
63087;SDS011;49173;43.164;27.786;2023-04-03T03:32:31;9.80;;;6.72;;
63087;SDS011;49173;43.164;27.786;2023-04-03T03:34:59;10.20;;;7.53;;
63087;SDS011;49173;43.164;27.786;2023-04-03T03:37:25;17.73;;;9.00;;
63087;SDS011;49173;43.164;27.786;2023-04-03T03:39:54;19.77;;;12.38;;
63087;SDS011;49173;43.164;27.786;2023-04-03T03:42:21;16.83;;;12.27;;
63087;SDS011;49173;43.164;27.786;2023-04-03T03:44:48;17.13;;;13.35;;
63087;SDS011;49173;43.164;27.786;2023-04-03T03:47:15;15.20;;;11.60;;
63087;SDS011;49173;43.164;27.786;2023-04-03T03:49:41;15.40;;;11.45;;
63087;SDS011;49173;43.164;27.786;2023-04-03T03:52:10;14.70;;;10.47;;
63087;SDS011;49173;43.164;27.786;2023-04-03T03:54:37;12.02;;;9.25;;
63087;SDS011;49173;43.164;27.786;2023-04-03T03:57:06;15.80;;;8.85;;
63087;SDS011;49173;43.164;27.786;2023-04-03T03:59:32;12.52;;;8.60;;
63087;SDS011;49173;43.164;27.786;2023-04-03T04:01:59;11.05;;;8.20;;
63087;SDS011;49173;43.164;27.786;2023-04-03T04:04:26;15.93;;;9.80;;
63087;SDS011;49173;43.164;27.786;2023-04-03T04:06:52;14.18;;;9.13;;
63087;SDS011;49173;43.164;27.786;2023-04-03T04:09:20;12.50;;;8.48;;
63087;SDS011;49173;43.164;27.786;2023-04-03T04:11:47;13.95;;;8.25;;
63087;SDS011;49173;43.164;27.786;2023-04-03T04:14:14;12.13;;;8.18;;
63087;SDS011;49173;43.164;27.786;2023-04-03T04:16:41;10.98;;;7.78;;
63087;SDS011;49173;43.164;27.786;2023-04-03T04:19:08;9.88;;;7.35;;
63087;SDS011;49173;43.164;27.786;2023-04-03T04:21:36;10.85;;;6.45;;
63087;SDS011;49173;43.164;27.786;2023-04-03T04:24:03;9.75;;;6.80;;
63087;SDS011;49173;43.164;27.786;2023-04-03T04:26:32;9.95;;;6.68;;
63087;SDS011;49173;43.164;27.786;2023-04-03T04:29:00;9.15;;;6.65;;
63087;SDS011;49173;43.164;27.786;2023-04-03T04:31:28;10.20;;;7.10;;
63087;SDS011;49173;43.164;27.786;2023-04-03T04:33:54;9.85;;;6.88;;
63087;SDS011;49173;43.164;27.786;2023-04-03T04:36:21;13.93;;;9.38;;
63087;SDS011;49173;43.164;27.786;2023-04-03T04:38:47;23.23;;;12.55;;
63087;SDS011;49173;43.164;27.786;2023-04-03T04:41:14;22.20;;;12.55;;
63087;SDS011;49173;43.164;27.786;2023-04-03T04:43:41;12.77;;;8.85;;
63087;SDS011;49173;43.164;27.786;2023-04-03T04:46:09;12.73;;;7.40;;
63087;SDS011;49173;43.164;27.786;2023-04-03T04:48:39;12.30;;;7.43;;
63087;SDS011;49173;43.164;27.786;2023-04-03T04:53:35;10.30;;;7.10;;
63087;SDS011;49173;43.164;27.786;2023-04-03T04:56:03;12.95;;;7.07;;
63087;SDS011;49173;43.164;27.786;2023-04-03T04:58:31;10.10;;;7.68;;
63087;SDS011;49173;43.164;27.786;2023-04-03T05:01:07;10.10;;;7.35;;
63087;SDS011;49173;43.164;27.786;2023-04-03T05:03:36;11.02;;;6.93;;
63087;SDS011;49173;43.164;27.786;2023-04-03T05:06:03;11.90;;;8.40;;
63087;SDS011;49173;43.164;27.786;2023-04-03T05:08:30;14.73;;;10.43;;
63087;SDS011;49173;43.164;27.786;2023-04-03T05:10:56;13.20;;;9.68;;
63087;SDS011;49173;43.164;27.786;2023-04-03T05:13:23;15.23;;;10.35;;
63087;SDS011;49173;43.164;27.786;2023-04-03T05:15:51;12.90;;;9.88;;
63087;SDS011;49173;43.164;27.786;2023-04-03T05:18:17;15.02;;;11.85;;
63087;SDS011;49173;43.164;27.786;2023-04-03T05:20:47;14.00;;;9.98;;
63087;SDS011;49173;43.164;27.786;2023-04-03T05:23:16;11.85;;;8.93;;
63087;SDS011;49173;43.164;27.786;2023-04-03T05:25:43;15.43;;;8.60;;
63087;SDS011;49173;43.164;27.786;2023-04-03T05:28:15;12.80;;;7.63;;
63087;SDS011;49173;43.164;27.786;2023-04-03T05:30:42;11.25;;;8.63;;
63087;SDS011;49173;43.164;27.786;2023-04-03T05:33:08;12.50;;;8.15;;
63087;SDS011;49173;43.164;27.786;2023-04-03T05:35:36;21.50;;;14.43;;
63087;SDS011;49173;43.164;27.786;2023-04-03T05:38:06;26.27;;;19.65;;
63087;SDS011;49173;43.164;27.786;2023-04-03T05:40:33;31.02;;;20.30;;
63087;SDS011;49173;43.164;27.786;2023-04-03T05:42:59;20.38;;;14.82;;
63087;SDS011;49173;43.164;27.786;2023-04-03T05:45:26;12.93;;;8.23;;
63087;SDS011;49173;43.164;27.786;2023-04-03T05:47:53;9.55;;;6.45;;
63087;SDS011;49173;43.164;27.786;2023-04-03T05:50:20;6.68;;;4.72;;
63087;SDS011;49173;43.164;27.786;2023-04-03T05:52:49;9.15;;;5.32;;
63087;SDS011;49173;43.164;27.786;2023-04-03T05:55:16;7.90;;;5.53;;
63087;SDS011;49173;43.164;27.786;2023-04-03T05:57:43;8.90;;;6.53;;
63087;SDS011;49173;43.164;27.786;2023-04-03T06:00:12;7.65;;;5.50;;
63087;SDS011;49173;43.164;27.786;2023-04-03T06:02:41;7.00;;;4.30;;
63087;SDS011;49173;43.164;27.786;2023-04-03T06:05:08;5.57;;;4.15;;
63087;SDS011;49173;43.164;27.786;2023-04-03T06:07:37;6.43;;;4.50;;
63087;SDS011;49173;43.164;27.786;2023-04-03T06:10:03;10.63;;;5.13;;
63087;SDS011;49173;43.164;27.786;2023-04-03T06:12:30;7.90;;;4.80;;
63087;SDS011;49173;43.164;27.786;2023-04-03T06:14:58;9.18;;;4.80;;
63087;SDS011;49173;43.164;27.786;2023-04-03T06:17:24;6.93;;;4.18;;
63087;SDS011;49173;43.164;27.786;2023-04-03T06:19:52;7.32;;;5.10;;
63087;SDS011;49173;43.164;27.786;2023-04-03T06:22:21;6.88;;;4.55;;
63087;SDS011;49173;43.164;27.786;2023-04-03T06:24:50;6.53;;;4.73;;
63087;SDS011;49173;43.164;27.786;2023-04-03T06:27:18;7.40;;;4.47;;
63087;SDS011;49173;43.164;27.786;2023-04-03T06:29:45;6.85;;;4.20;;
63087;SDS011;49173;43.164;27.786;2023-04-03T06:32:13;6.78;;;3.65;;
63087;SDS011;49173;43.164;27.786;2023-04-03T06:34:40;5.47;;;3.10;;
63087;SDS011;49173;43.164;27.786;2023-04-03T06:37:12;5.75;;;3.80;;
63087;SDS011;49173;43.164;27.786;2023-04-03T06:39:47;7.43;;;3.60;;
63087;SDS011;49173;43.164;27.786;2023-04-03T06:42:13;6.65;;;3.72;;
63087;SDS011;49173;43.164;27.786;2023-04-03T06:44:40;8.77;;;3.60;;
63087;SDS011;49173;43.164;27.786;2023-04-03T06:47:08;5.82;;;3.78;;
63087;SDS011;49173;43.164;27.786;2023-04-03T06:49:43;8.38;;;4.00;;
63087;SDS011;49173;43.164;27.786;2023-04-03T06:52:10;5.90;;;3.30;;
63087;SDS011;49173;43.164;27.786;2023-04-03T06:54:40;5.22;;;2.70;;
63087;SDS011;49173;43.164;27.786;2023-04-03T06:57:09;8.00;;;2.63;;
63087;SDS011;49173;43.164;27.786;2023-04-03T06:59:36;7.03;;;2.92;;
63087;SDS011;49173;43.164;27.786;2023-04-03T07:02:02;4.88;;;2.58;;
63087;SDS011;49173;43.164;27.786;2023-04-03T07:04:29;5.13;;;2.70;;
63087;SDS011;49173;43.164;27.786;2023-04-03T07:06:57;4.65;;;2.70;;
63087;SDS011;49173;43.164;27.786;2023-04-03T07:09:24;5.45;;;2.70;;
63087;SDS011;49173;43.164;27.786;2023-04-03T07:11:51;2.97;;;2.00;;
63087;SDS011;49173;43.164;27.786;2023-04-03T07:14:19;4.93;;;2.50;;
63087;SDS011;49173;43.164;27.786;2023-04-03T07:19:15;4.85;;;3.40;;
63087;SDS011;49173;43.164;27.786;2023-04-03T07:21:41;4.80;;;3.22;;
63087;SDS011;49173;43.164;27.786;2023-04-03T07:24:09;4.38;;;2.85;;
63087;SDS011;49173;43.164;27.786;2023-04-03T07:26:35;4.65;;;2.67;;
63087;SDS011;49173;43.164;27.786;2023-04-03T07:29:04;5.03;;;2.53;;
63087;SDS011;49173;43.164;27.786;2023-04-03T07:31:39;3.90;;;2.47;;
63087;SDS011;49173;43.164;27.786;2023-04-03T07:34:07;6.05;;;2.17;;
63087;SDS011;49173;43.164;27.786;2023-04-03T07:36:36;4.63;;;2.65;;
63087;SDS011;49173;43.164;27.786;2023-04-03T07:39:03;4.45;;;2.03;;
63087;SDS011;49173;43.164;27.786;2023-04-03T07:41:29;4.07;;;1.95;;
63087;SDS011;49173;43.164;27.786;2023-04-03T07:43:56;5.55;;;2.35;;
63087;SDS011;49173;43.164;27.786;2023-04-03T07:46:22;4.07;;;2.22;;
63087;SDS011;49173;43.164;27.786;2023-04-03T07:48:49;4.38;;;1.60;;
63087;SDS011;49173;43.164;27.786;2023-04-03T07:51:23;6.15;;;1.88;;
63087;SDS011;49173;43.164;27.786;2023-04-03T07:53:51;2.65;;;1.80;;
63087;SDS011;49173;43.164;27.786;2023-04-03T07:56:21;3.15;;;1.80;;
63087;SDS011;49173;43.164;27.786;2023-04-03T07:58:48;4.40;;;1.90;;
63087;SDS011;49173;43.164;27.786;2023-04-03T08:01:15;3.60;;;2.40;;
63087;SDS011;49173;43.164;27.786;2023-04-03T08:03:42;5.43;;;2.40;;
63087;SDS011;49173;43.164;27.786;2023-04-03T08:06:10;3.13;;;2.00;;
63087;SDS011;49173;43.164;27.786;2023-04-03T08:08:36;3.40;;;2.30;;
63087;SDS011;49173;43.164;27.786;2023-04-03T08:11:03;4.45;;;2.00;;
63087;SDS011;49173;43.164;27.786;2023-04-03T08:13:31;5.35;;;2.53;;
63087;SDS011;49173;43.164;27.786;2023-04-03T08:18:35;3.65;;;2.20;;
63087;SDS011;49173;43.164;27.786;2023-04-03T08:21:10;3.13;;;2.05;;
63087;SDS011;49173;43.164;27.786;2023-04-03T08:23:39;4.40;;;2.30;;
63087;SDS011;49173;43.164;27.786;2023-04-03T08:26:08;3.65;;;2.35;;
63087;SDS011;49173;43.164;27.786;2023-04-03T08:28:38;7.13;;;2.38;;
63087;SDS011;49173;43.164;27.786;2023-04-03T08:31:06;3.78;;;2.17;;
63087;SDS011;49173;43.164;27.786;2023-04-03T08:33:39;4.68;;;2.30;;
63087;SDS011;49173;43.164;27.786;2023-04-03T08:36:14;5.18;;;2.78;;
63087;SDS011;49173;43.164;27.786;2023-04-03T08:38:47;4.32;;;2.30;;
63087;SDS011;49173;43.164;27.786;2023-04-03T08:41:29;8.40;;;2.55;;
63087;SDS011;49173;43.164;27.786;2023-04-03T08:49:51;4.38;;;2.83;;
63087;SDS011;49173;43.164;27.786;2023-04-03T08:52:37;3.70;;;2.53;;
63087;SDS011;49173;43.164;27.786;2023-04-03T08:55:28;4.13;;;2.17;;
63087;SDS011;49173;43.164;27.786;2023-04-03T08:58:26;6.72;;;3.03;;
63087;SDS011;49173;43.164;27.786;2023-04-03T09:01:00;4.95;;;2.30;;
63087;SDS011;49173;43.164;27.786;2023-04-03T09:04:01;2.97;;;2.20;;
63087;SDS011;49173;43.164;27.786;2023-04-03T09:06:52;4.95;;;2.20;;
63087;SDS011;49173;43.164;27.786;2023-04-03T09:09:34;5.15;;;2.30;;
63087;SDS011;49173;43.164;27.786;2023-04-03T09:17:57;3.85;;;2.33;;
63087;SDS011;49173;43.164;27.786;2023-04-03T09:26:19;4.68;;;2.38;;
63087;SDS011;49173;43.164;27.786;2023-04-03T09:29:02;3.80;;;2.10;;
63087;SDS011;49173;43.164;27.786;2023-04-03T09:31:37;7.50;;;2.67;;
63087;SDS011;49173;43.164;27.786;2023-04-03T09:34:08;5.55;;;2.53;;
63087;SDS011;49173;43.164;27.786;2023-04-03T09:37:10;17.42;;;11.50;;
63087;SDS011;49173;43.164;27.786;2023-04-03T09:39:59;6.38;;;3.22;;
63087;SDS011;49173;43.164;27.786;2023-04-03T09:42:26;4.55;;;2.70;;
63087;SDS011;49173;43.164;27.786;2023-04-03T09:47:29;14.55;;;6.82;;
63087;SDS011;49173;43.164;27.786;2023-04-03T09:50:15;10.82;;;8.52;;
63087;SDS011;49173;43.164;27.786;2023-04-03T09:52:48;24.50;;;15.73;;
63087;SDS011;49173;43.164;27.786;2023-04-03T09:55:20;33.75;;;24.25;;
63087;SDS011;49173;43.164;27.786;2023-04-03T09:57:53;9.48;;;8.10;;
63087;SDS011;49173;43.164;27.786;2023-04-03T10:00:23;6.30;;;3.40;;
63087;SDS011;49173;43.164;27.786;2023-04-03T10:02:55;4.63;;;3.20;;
63087;SDS011;49173;43.164;27.786;2023-04-03T10:08:19;4.70;;;3.95;;
63087;SDS011;49173;43.164;27.786;2023-04-03T10:11:04;7.20;;;4.03;;
63087;SDS011;49173;43.164;27.786;2023-04-03T10:13:51;5.93;;;4.00;;
63087;SDS011;49173;43.164;27.786;2023-04-03T10:16:32;5.13;;;4.22;;
63087;SDS011;49173;43.164;27.786;2023-04-03T10:21:46;6.30;;;4.25;;
63087;SDS011;49173;43.164;27.786;2023-04-03T10:36:02;6.07;;;4.65;;
63087;SDS011;49173;43.164;27.786;2023-04-03T10:41:21;5.20;;;3.85;;
63087;SDS011;49173;43.164;27.786;2023-04-03T10:46:56;17.08;;;15.27;;
63087;SDS011;49173;43.164;27.786;2023-04-03T10:52:31;4.95;;;3.70;;
63087;SDS011;49173;43.164;27.786;2023-04-03T10:58:05;4.93;;;3.67;;
63087;SDS011;49173;43.164;27.786;2023-04-03T11:00:45;5.03;;;3.63;;
63087;SDS011;49173;43.164;27.786;2023-04-03T11:05:57;6.03;;;3.60;;
63087;SDS011;49173;43.164;27.786;2023-04-03T11:08:33;5.00;;;4.28;;
63087;SDS011;49173;43.164;27.786;2023-04-03T11:11:11;6.30;;;4.22;;
63087;SDS011;49173;43.164;27.786;2023-04-03T11:13:43;5.13;;;3.40;;
63087;SDS011;49173;43.164;27.786;2023-04-03T11:16:24;5.15;;;3.33;;
63087;SDS011;49173;43.164;27.786;2023-04-03T11:22:33;7.15;;;4.60;;
63087;SDS011;49173;43.164;27.786;2023-04-03T11:33:21;4.03;;;3.30;;
63087;SDS011;49173;43.164;27.786;2023-04-03T11:36:13;8.98;;;6.72;;
63087;SDS011;49173;43.164;27.786;2023-04-03T11:38:46;6.85;;;3.90;;
63087;SDS011;49173;43.164;27.786;2023-04-03T11:41:14;14.83;;;9.30;;
63087;SDS011;49173;43.164;27.786;2023-04-03T11:46:50;4.15;;;3.13;;
63087;SDS011;49173;43.164;27.786;2023-04-03T12:05:54;4.18;;;3.13;;
63087;SDS011;49173;43.164;27.786;2023-04-03T12:08:45;12.25;;;10.95;;
63087;SDS011;49173;43.164;27.786;2023-04-03T12:11:31;4.88;;;3.97;;
63087;SDS011;49173;43.164;27.786;2023-04-03T12:14:04;7.35;;;5.00;;
63087;SDS011;49173;43.164;27.786;2023-04-03T12:24:35;6.90;;;3.60;;
63087;SDS011;49173;43.164;27.786;2023-04-03T12:27:12;10.68;;;8.40;;
63087;SDS011;49173;43.164;27.786;2023-04-03T12:29:57;7.25;;;5.47;;
63087;SDS011;49173;43.164;27.786;2023-04-03T12:47:21;6.32;;;4.43;;
63087;SDS011;49173;43.164;27.786;2023-04-03T12:49:59;5.30;;;3.85;;
63087;SDS011;49173;43.164;27.786;2023-04-03T12:52:30;5.00;;;4.10;;
63087;SDS011;49173;43.164;27.786;2023-04-03T12:55:01;4.95;;;3.63;;
63087;SDS011;49173;43.164;27.786;2023-04-03T12:57:29;5.10;;;3.95;;
63087;SDS011;49173;43.164;27.786;2023-04-03T12:59:58;5.60;;;3.95;;
63087;SDS011;49173;43.164;27.786;2023-04-03T13:02:45;5.57;;;4.20;;
63087;SDS011;49173;43.164;27.786;2023-04-03T13:05:14;6.28;;;3.92;;
63087;SDS011;49173;43.164;27.786;2023-04-03T13:07:48;6.40;;;5.10;;
63087;SDS011;49173;43.164;27.786;2023-04-03T13:10:22;14.18;;;11.45;;
63087;SDS011;49173;43.164;27.786;2023-04-03T13:12:55;6.20;;;4.90;;
63087;SDS011;49173;43.164;27.786;2023-04-03T13:15:28;10.15;;;9.15;;
63087;SDS011;49173;43.164;27.786;2023-04-03T13:18:20;7.68;;;6.72;;
63087;SDS011;49173;43.164;27.786;2023-04-03T13:20:52;7.57;;;4.57;;
63087;SDS011;49173;43.164;27.786;2023-04-03T13:23:19;5.65;;;4.45;;
63087;SDS011;49173;43.164;27.786;2023-04-03T13:25:50;9.00;;;4.80;;
63087;SDS011;49173;43.164;27.786;2023-04-03T13:28:23;8.00;;;5.00;;
63087;SDS011;49173;43.164;27.786;2023-04-03T13:30:57;7.63;;;4.88;;
63087;SDS011;49173;43.164;27.786;2023-04-03T13:33:51;6.57;;;5.15;;
63087;SDS011;49173;43.164;27.786;2023-04-03T13:36:30;7.37;;;4.77;;
63087;SDS011;49173;43.164;27.786;2023-04-03T13:41:45;5.10;;;4.00;;
63087;SDS011;49173;43.164;27.786;2023-04-03T13:44:16;6.20;;;4.63;;
63087;SDS011;49173;43.164;27.786;2023-04-03T13:46:53;5.93;;;4.32;;
63087;SDS011;49173;43.164;27.786;2023-04-03T13:49:41;5.88;;;4.63;;
63087;SDS011;49173;43.164;27.786;2023-04-03T13:52:29;6.68;;;4.60;;
63087;SDS011;49173;43.164;27.786;2023-04-03T13:55:18;8.73;;;6.95;;
63087;SDS011;49173;43.164;27.786;2023-04-03T13:57:58;5.72;;;4.43;;
63087;SDS011;49173;43.164;27.786;2023-04-03T14:03:29;6.68;;;4.97;;
63087;SDS011;49173;43.164;27.786;2023-04-03T14:06:05;8.07;;;6.00;;
63087;SDS011;49173;43.164;27.786;2023-04-03T14:08:33;6.80;;;5.28;;
63087;SDS011;49173;43.164;27.786;2023-04-03T14:11:02;20.50;;;11.43;;
63087;SDS011;49173;43.164;27.786;2023-04-03T14:13:29;6.05;;;4.63;;
63087;SDS011;49173;43.164;27.786;2023-04-03T14:15:58;7.15;;;4.63;;
63087;SDS011;49173;43.164;27.786;2023-04-03T14:18:26;5.60;;;4.03;;
63087;SDS011;49173;43.164;27.786;2023-04-03T14:20:53;6.63;;;5.10;;
63087;SDS011;49173;43.164;27.786;2023-04-03T14:23:20;6.57;;;4.60;;
63087;SDS011;49173;43.164;27.786;2023-04-03T14:25:46;5.30;;;4.00;;
63087;SDS011;49173;43.164;27.786;2023-04-03T14:28:17;13.75;;;12.27;;
63087;SDS011;49173;43.164;27.786;2023-04-03T14:30:48;11.95;;;10.70;;
63087;SDS011;49173;43.164;27.786;2023-04-03T14:33:17;9.15;;;6.97;;
63087;SDS011;49173;43.164;27.786;2023-04-03T14:35:47;28.88;;;26.13;;
63087;SDS011;49173;43.164;27.786;2023-04-03T14:38:23;14.65;;;13.10;;
63087;SDS011;49173;43.164;27.786;2023-04-03T14:40:53;12.13;;;9.10;;
63087;SDS011;49173;43.164;27.786;2023-04-03T14:43:23;8.05;;;5.95;;
63087;SDS011;49173;43.164;27.786;2023-04-03T14:45:52;8.23;;;5.82;;
63087;SDS011;49173;43.164;27.786;2023-04-03T14:48:22;10.67;;;8.30;;
63087;SDS011;49173;43.164;27.786;2023-04-03T14:50:53;11.68;;;9.15;;
63087;SDS011;49173;43.164;27.786;2023-04-03T14:53:20;10.57;;;6.47;;
63087;SDS011;49173;43.164;27.786;2023-04-03T14:55:51;12.68;;;9.18;;
63087;SDS011;49173;43.164;27.786;2023-04-03T14:58:19;6.93;;;5.00;;
63087;SDS011;49173;43.164;27.786;2023-04-03T15:00:50;9.48;;;6.85;;
63087;SDS011;49173;43.164;27.786;2023-04-03T15:03:18;7.85;;;6.18;;
63087;SDS011;49173;43.164;27.786;2023-04-03T15:05:47;10.32;;;8.00;;
63087;SDS011;49173;43.164;27.786;2023-04-03T15:08:26;8.85;;;6.63;;
63087;SDS011;49173;43.164;27.786;2023-04-03T15:10:56;7.97;;;5.35;;
63087;SDS011;49173;43.164;27.786;2023-04-03T15:13:24;9.27;;;6.38;;
63087;SDS011;49173;43.164;27.786;2023-04-03T15:15:54;8.07;;;6.60;;
63087;SDS011;49173;43.164;27.786;2023-04-03T15:18:23;13.95;;;10.93;;
63087;SDS011;49173;43.164;27.786;2023-04-03T15:23:20;12.10;;;8.90;;
63087;SDS011;49173;43.164;27.786;2023-04-03T15:25:51;10.50;;;7.25;;
63087;SDS011;49173;43.164;27.786;2023-04-03T15:28:26;9.52;;;7.38;;
63087;SDS011;49173;43.164;27.786;2023-04-03T15:30:57;9.27;;;7.20;;
63087;SDS011;49173;43.164;27.786;2023-04-03T15:33:26;19.48;;;15.10;;
63087;SDS011;49173;43.164;27.786;2023-04-03T15:35:54;13.45;;;11.85;;
63087;SDS011;49173;43.164;27.786;2023-04-03T15:38:21;9.80;;;6.50;;
63087;SDS011;49173;43.164;27.786;2023-04-03T15:40:49;8.43;;;6.40;;
63087;SDS011;49173;43.164;27.786;2023-04-03T15:43:17;8.05;;;5.82;;
63087;SDS011;49173;43.164;27.786;2023-04-03T15:45:45;11.52;;;9.15;;
63087;SDS011;49173;43.164;27.786;2023-04-03T15:48:13;10.18;;;7.40;;
63087;SDS011;49173;43.164;27.786;2023-04-03T15:50:42;9.70;;;6.70;;
63087;SDS011;49173;43.164;27.786;2023-04-03T15:53:08;10.00;;;7.40;;
63087;SDS011;49173;43.164;27.786;2023-04-03T15:55:36;10.27;;;7.28;;
63087;SDS011;49173;43.164;27.786;2023-04-03T15:58:05;11.52;;;7.65;;
63087;SDS011;49173;43.164;27.786;2023-04-03T16:00:33;9.90;;;7.40;;
63087;SDS011;49173;43.164;27.786;2023-04-03T16:03:08;11.25;;;6.88;;
63087;SDS011;49173;43.164;27.786;2023-04-03T16:05:41;6.90;;;4.90;;
63087;SDS011;49173;43.164;27.786;2023-04-03T16:08:08;11.45;;;8.85;;
63087;SDS011;49173;43.164;27.786;2023-04-03T16:10:40;9.70;;;7.25;;
63087;SDS011;49173;43.164;27.786;2023-04-03T16:13:07;8.23;;;5.13;;
63087;SDS011;49173;43.164;27.786;2023-04-03T16:15:34;7.43;;;5.95;;
63087;SDS011;49173;43.164;27.786;2023-04-03T16:18:07;8.20;;;5.80;;
63087;SDS011;49173;43.164;27.786;2023-04-03T16:20:35;7.75;;;5.03;;
63087;SDS011;49173;43.164;27.786;2023-04-03T16:23:03;14.93;;;11.95;;
63087;SDS011;49173;43.164;27.786;2023-04-03T16:25:31;13.95;;;10.40;;
63087;SDS011;49173;43.164;27.786;2023-04-03T16:27:58;10.65;;;7.65;;
63087;SDS011;49173;43.164;27.786;2023-04-03T16:30:27;9.00;;;6.70;;
63087;SDS011;49173;43.164;27.786;2023-04-03T16:32:53;7.70;;;5.75;;
63087;SDS011;49173;43.164;27.786;2023-04-03T16:35:23;10.05;;;5.50;;
63087;SDS011;49173;43.164;27.786;2023-04-03T16:37:49;7.72;;;5.70;;
63087;SDS011;49173;43.164;27.786;2023-04-03T16:40:16;6.72;;;4.90;;
63087;SDS011;49173;43.164;27.786;2023-04-03T16:42:43;8.57;;;5.40;;
63087;SDS011;49173;43.164;27.786;2023-04-03T16:45:13;7.63;;;5.53;;
63087;SDS011;49173;43.164;27.786;2023-04-03T16:47:42;6.07;;;4.78;;
63087;SDS011;49173;43.164;27.786;2023-04-03T16:50:08;7.10;;;5.20;;
63087;SDS011;49173;43.164;27.786;2023-04-03T16:52:35;8.82;;;7.05;;
63087;SDS011;49173;43.164;27.786;2023-04-03T16:55:03;8.65;;;6.97;;
63087;SDS011;49173;43.164;27.786;2023-04-03T16:57:30;9.82;;;7.90;;
63087;SDS011;49173;43.164;27.786;2023-04-03T16:59:56;9.95;;;8.32;;